createdAt,value
2023-03-04T00:00:46.430Z,37.00
2023-03-04T00:03:16.511Z,36.98
2023-03-04T00:05:44.972Z,37.36
2023-03-04T00:08:14.436Z,37.07
2023-03-04T00:10:42.747Z,37.09
2023-03-04T00:13:10.996Z,37.11
2023-03-04T00:15:39.082Z,37.04
2023-03-04T00:18:07.360Z,37.18
2023-03-04T00:20:35.436Z,36.88
2023-03-04T00:23:03.503Z,37.12
2023-03-04T00:25:33.658Z,37.29
2023-03-04T00:28:01.780Z,37.05
2023-03-04T00:30:29.825Z,37.05
2023-03-04T00:32:57.915Z,36.99
2023-03-04T00:35:26.026Z,37.05
2023-03-04T00:37:54.056Z,37.07
2023-03-04T00:40:22.209Z,37.03
2023-03-04T00:42:51.658Z,37.14
2023-03-04T00:45:19.843Z,37.02
2023-03-04T00:47:47.883Z,37.08
2023-03-04T00:50:16.039Z,37.12
2023-03-04T00:52:44.161Z,36.92
2023-03-04T00:55:12.369Z,37.08
2023-03-04T00:57:40.429Z,36.95
2023-03-04T01:00:11.493Z,37.02
2023-03-04T01:02:39.551Z,37.17
2023-03-04T01:05:09.117Z,36.96
2023-03-04T01:07:37.309Z,36.94
2023-03-04T01:10:06.816Z,36.98
2023-03-04T01:12:34.881Z,37.00
2023-03-04T01:15:02.964Z,37.14
2023-03-04T01:17:32.410Z,36.99
2023-03-04T01:20:00.565Z,36.94
2023-03-04T01:22:28.576Z,37.04
2023-03-04T01:24:56.612Z,36.96
2023-03-04T01:27:24.896Z,37.03
2023-03-04T01:29:53.053Z,37.06
2023-03-04T01:32:21.141Z,36.88
2023-03-04T01:34:50.645Z,37.08
2023-03-04T01:37:18.715Z,36.91
2023-03-04T01:39:46.753Z,36.82
2023-03-04T01:42:20.890Z,36.82
2023-03-04T01:44:50.570Z,36.87
2023-03-04T01:47:19.352Z,36.66
2023-03-04T01:49:54.484Z,36.69
2023-03-04T01:52:22.826Z,36.67
2023-03-04T01:54:50.955Z,36.77
2023-03-04T01:57:20.873Z,36.83
2023-03-04T02:00:09.338Z,36.80
2023-03-04T02:02:37.594Z,36.71
2023-03-04T02:05:07.628Z,36.68
2023-03-04T02:07:35.809Z,36.58
2023-03-04T02:10:04.750Z,36.66
2023-03-04T02:12:32.884Z,36.55
2023-03-04T02:15:01.035Z,36.58
2023-03-04T02:17:30.240Z,36.59
2023-03-04T02:20:04.252Z,36.54
2023-03-04T02:22:39.402Z,36.56
2023-03-04T02:25:12.321Z,36.48
2023-03-04T02:27:41.783Z,36.46
2023-03-04T02:30:13.125Z,36.44
2023-03-04T02:32:41.207Z,36.46
2023-03-04T02:35:17.447Z,36.41
2023-03-04T02:37:46.090Z,36.54
2023-03-04T02:40:17.703Z,36.52
2023-03-04T02:42:47.746Z,36.51
2023-03-04T02:45:37.311Z,36.33
2023-03-04T02:48:06.032Z,36.52
2023-03-04T02:50:37.470Z,36.40
2023-03-04T02:53:06.196Z,36.43
2023-03-04T02:55:34.488Z,36.51
2023-03-04T02:58:04.354Z,36.56
2023-03-04T03:00:32.503Z,36.50
2023-03-04T03:03:00.626Z,36.55
2023-03-04T03:05:32.358Z,36.43
2023-03-04T03:08:00.511Z,36.54
2023-03-04T03:10:29.159Z,36.45
2023-03-04T03:12:57.504Z,36.50
2023-03-04T03:15:27.044Z,36.49
2023-03-04T03:17:55.088Z,36.43
2023-03-04T03:20:23.149Z,36.49
2023-03-04T03:22:51.292Z,36.44
2023-03-04T03:25:19.512Z,36.36
2023-03-04T03:27:47.535Z,36.54
2023-03-04T03:30:16.653Z,36.37
2023-03-04T03:32:46.093Z,36.30
2023-03-04T03:35:14.402Z,36.34
2023-03-04T03:37:42.639Z,36.29
2023-03-04T03:40:13.286Z,36.19
2023-03-04T03:42:41.346Z,36.14
2023-03-04T03:45:10.283Z,36.13
2023-03-04T03:47:38.325Z,36.09
2023-03-04T03:50:08.855Z,36.15
2023-03-04T03:52:37.004Z,36.25
2023-03-04T03:55:05.987Z,36.06
2023-03-04T03:57:34.104Z,35.96
2023-03-04T04:00:02.230Z,36.12
2023-03-04T04:02:30.447Z,36.04
2023-03-04T04:04:58.525Z,35.84
2023-03-04T04:07:28.035Z,35.87
2023-03-04T04:09:56.108Z,35.91
2023-03-04T04:12:24.137Z,35.76
2023-03-04T04:14:52.191Z,35.91
2023-03-04T04:17:20.376Z,35.81
2023-03-04T04:19:48.451Z,35.91
2023-03-04T04:22:18.805Z,35.88
2023-03-04T04:24:49.019Z,35.89
2023-03-04T04:27:17.307Z,35.83
2023-03-04T04:29:45.584Z,35.81
2023-03-04T04:32:14.212Z,35.65
2023-03-04T04:34:42.272Z,35.83
2023-03-04T04:37:10.363Z,35.73
2023-03-04T04:39:38.516Z,35.60
2023-03-04T04:42:08.110Z,35.63
2023-03-04T04:44:36.376Z,35.61
2023-03-04T04:47:04.427Z,35.56
2023-03-04T04:49:32.607Z,35.54
2023-03-04T04:52:00.675Z,35.61
2023-03-04T04:54:28.820Z,35.50
2023-03-04T04:56:56.916Z,35.42
2023-03-04T04:59:26.504Z,35.44
2023-03-04T05:01:54.620Z,35.47
2023-03-04T05:04:23.120Z,35.57
2023-03-04T05:06:51.213Z,35.38
2023-03-04T05:09:19.665Z,35.40
2023-03-04T05:11:47.804Z,35.37
2023-03-04T05:14:15.989Z,35.30
2023-03-04T05:16:45.527Z,35.41
2023-03-04T05:19:13.591Z,35.37
2023-03-04T05:21:41.681Z,35.29
2023-03-04T05:24:09.895Z,35.40
2023-03-04T05:26:38.255Z,35.30
2023-03-04T05:29:06.517Z,35.42
2023-03-04T05:31:34.633Z,35.30
2023-03-04T05:34:04.185Z,35.37
2023-03-04T05:36:32.308Z,35.26
2023-03-04T05:39:00.455Z,35.25
2023-03-04T05:41:28.653Z,35.19
2023-03-04T05:43:56.776Z,35.29
2023-03-04T05:46:25.878Z,35.28
2023-03-04T05:48:54.561Z,35.37
2023-03-04T05:51:24.460Z,35.21
2023-03-04T05:53:52.795Z,35.16
2023-03-04T05:56:21.877Z,35.09
2023-03-04T05:58:50.048Z,35.13
2023-03-04T06:01:18.361Z,35.12
2023-03-04T06:03:48.705Z,35.14
2023-03-04T06:06:16.973Z,35.18
2023-03-04T06:08:46.549Z,35.26
2023-03-04T06:11:14.713Z,35.23
2023-03-04T06:13:42.851Z,35.34
2023-03-04T06:16:11.272Z,35.21
2023-03-04T06:18:39.928Z,35.20
2023-03-04T06:21:08.026Z,35.08
2023-03-04T06:23:36.165Z,35.09
2023-03-04T06:26:09.565Z,35.11
2023-03-04T06:28:37.644Z,35.08
2023-03-04T06:31:06.045Z,35.07
2023-03-04T06:33:34.505Z,35.21
2023-03-04T06:36:02.933Z,35.19
2023-03-04T06:38:31.090Z,35.25
2023-03-04T06:41:09.882Z,35.06
2023-03-04T06:43:38.612Z,35.13
2023-03-04T06:46:07.272Z,35.30
2023-03-04T06:48:35.463Z,35.21
2023-03-04T06:51:07.775Z,35.09
2023-03-04T06:53:36.023Z,35.21
2023-03-04T06:56:04.180Z,35.08
2023-03-04T06:58:34.083Z,35.24
2023-03-04T07:01:12.575Z,34.95
2023-03-04T07:03:41.089Z,35.38
2023-03-04T07:06:10.815Z,35.10
2023-03-04T07:08:39.015Z,34.98
2023-03-04T07:11:07.497Z,35.15
2023-03-04T07:13:38.465Z,34.99
2023-03-04T07:16:07.764Z,34.99
2023-03-04T07:18:36.137Z,35.04
2023-03-04T07:21:04.825Z,34.99
2023-03-04T07:23:33.358Z,34.93
2023-03-04T07:26:01.660Z,35.17
2023-03-04T07:28:29.793Z,35.01
2023-03-04T07:31:09.112Z,35.04
2023-03-04T07:33:37.264Z,34.89
2023-03-04T07:36:05.614Z,34.85
2023-03-04T07:38:33.817Z,34.93
2023-03-04T07:41:02.207Z,34.81
2023-03-04T07:43:30.609Z,35.15
2023-03-04T07:46:03.833Z,34.82
2023-03-04T07:48:32.254Z,34.82
2023-03-04T07:51:11.556Z,34.53
2023-03-04T07:53:41.310Z,34.69
2023-03-04T07:56:12.348Z,34.73
2023-03-04T07:58:40.608Z,34.62
2023-03-04T08:01:15.203Z,34.52
2023-03-04T08:03:43.815Z,34.61
2023-03-04T08:06:14.707Z,34.56
2023-03-04T08:08:44.192Z,34.73
2023-03-04T08:11:15.464Z,34.68
2023-03-04T08:13:43.937Z,34.66
2023-03-04T08:16:15.647Z,34.62
2023-03-04T08:18:44.871Z,34.55
2023-03-04T08:21:13.617Z,34.57
2023-03-04T08:23:43.079Z,34.39
2023-03-04T08:26:14.599Z,34.55
2023-03-04T08:28:42.955Z,34.40
2023-03-04T08:31:11.202Z,34.42
2023-03-04T08:33:41.165Z,34.51
2023-03-04T08:36:09.717Z,34.55
2023-03-04T08:38:38.344Z,34.47
2023-03-04T08:41:07.012Z,34.60
2023-03-04T08:43:35.725Z,34.44
2023-03-04T08:46:04.760Z,34.59
2023-03-04T08:48:33.309Z,34.33
2023-03-04T08:51:08.474Z,34.37
2023-03-04T08:53:36.608Z,34.58
2023-03-04T08:56:04.906Z,34.41
2023-03-04T08:58:33.221Z,34.46
2023-03-04T09:01:02.171Z,34.42
2023-03-04T09:03:30.566Z,34.38
2023-03-04T09:05:58.770Z,34.21
2023-03-04T09:08:28.485Z,34.37
2023-03-04T09:10:56.892Z,34.26
2023-03-04T09:13:26.467Z,34.28
2023-03-04T09:15:55.160Z,34.18
2023-03-04T09:18:24.765Z,34.27
2023-03-04T09:20:53.591Z,34.19
2023-03-04T09:23:22.483Z,34.15
2023-03-04T09:25:52.258Z,34.25
2023-03-04T09:28:21.231Z,34.18
2023-03-04T09:30:49.393Z,34.32
2023-03-04T09:33:17.901Z,34.24
2023-03-04T09:35:46.245Z,34.23
2023-03-04T09:38:15.230Z,34.22
2023-03-04T09:40:45.912Z,34.12
2023-03-04T09:43:21.145Z,34.15
2023-03-04T09:45:53.376Z,34.14
2023-03-04T09:48:24.796Z,34.23
2023-03-04T09:51:08.072Z,33.92
2023-03-04T09:53:47.753Z,34.25
2023-03-04T09:56:16.113Z,34.05
2023-03-04T09:58:57.269Z,34.03
2023-03-04T10:01:30.158Z,34.19
2023-03-04T10:04:03.952Z,34.06
2023-03-04T10:06:33.174Z,34.13
2023-03-04T10:09:03.748Z,34.12
2023-03-04T10:11:36.475Z,34.22
2023-03-04T10:14:19.284Z,33.87
2023-03-04T10:16:50.498Z,34.12
2023-03-04T10:19:33.152Z,33.73
2023-03-04T10:22:01.324Z,33.96
2023-03-04T10:24:31.365Z,34.02
2023-03-04T10:27:04.967Z,34.12
2023-03-04T10:29:35.191Z,34.10
2023-03-04T10:32:03.250Z,34.10
2023-03-04T10:34:31.440Z,33.92
2023-03-04T10:37:02.625Z,33.96
2023-03-04T10:39:33.200Z,33.93
2023-03-04T10:42:03.522Z,33.98
2023-03-04T10:44:32.717Z,33.96
2023-03-04T10:47:02.714Z,33.96
2023-03-04T10:49:32.471Z,34.00
2023-03-04T10:52:04.563Z,33.97
2023-03-04T10:54:37.033Z,33.85
2023-03-04T10:57:06.840Z,33.87
2023-03-04T10:59:53.531Z,33.28
2023-03-04T11:02:25.724Z,33.75
2023-03-04T11:04:57.325Z,33.84
2023-03-04T11:07:26.976Z,33.85
2023-03-04T11:09:58.333Z,33.73
2023-03-04T11:12:35.216Z,33.46
2023-03-04T11:15:04.966Z,33.80
2023-03-04T11:17:45.207Z,33.17
2023-03-04T11:20:19.506Z,33.71
2023-03-04T11:22:47.957Z,33.55
2023-03-04T11:25:25.332Z,33.38
2023-03-04T11:27:57.100Z,33.58
2023-03-04T11:30:35.514Z,33.55
2023-03-04T11:33:28.949Z,33.02
2023-03-04T11:36:14.747Z,33.35
2023-03-04T11:38:48.123Z,33.57
2023-03-04T11:41:21.894Z,33.54
2023-03-04T11:43:50.290Z,33.70
2023-03-04T11:46:50.824Z,33.08
2023-03-04T11:50:00.951Z,32.94
2023-03-04T11:52:47.613Z,33.26
2023-03-04T11:55:30.848Z,33.34
2023-03-04T11:58:17.515Z,33.47
2023-03-04T12:00:50.642Z,33.72
2023-03-04T12:03:49.261Z,32.93
2023-03-04T12:06:25.668Z,33.66
2023-03-04T12:09:04.482Z,33.50
2023-03-04T12:11:43.832Z,33.64
2023-03-04T12:14:25.050Z,33.13
2023-03-04T12:17:26.571Z,33.38
2023-03-04T12:20:18.054Z,33.52
2023-03-04T12:22:48.546Z,33.55
2023-03-04T12:25:41.197Z,33.04
2023-03-04T12:28:32.478Z,33.30
2023-03-04T12:31:18.736Z,33.46
2023-03-04T12:34:01.053Z,33.42
2023-03-04T12:36:36.586Z,33.45
2023-03-04T12:39:20.539Z,33.05
2023-03-04T12:42:01.891Z,33.27
2023-03-04T12:44:35.779Z,33.51
2023-03-04T12:47:24.832Z,32.92
2023-03-04T12:50:24.576Z,32.94
2023-03-04T12:52:58.604Z,33.43
2023-03-04T12:55:36.609Z,33.32
2023-03-04T12:58:07.327Z,33.45
2023-03-04T13:00:47.450Z,33.29
2023-03-04T13:03:23.314Z,33.42
2023-03-04T13:06:08.496Z,33.03
2023-03-04T13:08:47.925Z,33.44
2023-03-04T13:11:47.388Z,32.85
2023-03-04T13:14:29.108Z,33.07
2023-03-04T13:17:01.697Z,33.26
2023-03-04T13:19:52.673Z,32.75
2023-03-04T13:22:53.502Z,32.80
2023-03-04T13:25:36.579Z,32.99
2023-03-04T13:28:33.131Z,33.02
2023-03-04T13:31:16.680Z,33.05
2023-03-04T13:33:54.377Z,33.18
2023-03-04T13:37:00.392Z,33.04
2023-03-04T13:39:31.251Z,33.35
2023-03-04T13:42:00.001Z,33.38
2023-03-04T13:45:01.982Z,32.67
2023-03-04T13:47:48.439Z,32.97
2023-03-04T13:50:37.634Z,32.78
2023-03-04T13:53:34.615Z,32.81
2023-03-04T13:56:14.089Z,33.07
2023-03-04T13:58:42.972Z,33.28
2023-03-04T14:01:25.919Z,32.94
2023-03-04T14:03:55.795Z,33.26
2023-03-04T14:06:28.278Z,33.36
2023-03-04T14:08:57.511Z,33.38
2023-03-04T14:11:34.200Z,33.25
2023-03-04T14:14:07.199Z,33.33
2023-03-04T14:16:40.840Z,33.18
2023-03-04T14:19:18.120Z,33.07
2023-03-04T14:21:47.926Z,33.36
2023-03-04T14:24:17.879Z,33.29
2023-03-04T14:26:46.344Z,33.25
2023-03-04T14:29:26.094Z,33.05
2023-03-04T14:31:55.143Z,33.19
2023-03-04T14:34:30.026Z,33.11
2023-03-04T14:36:58.157Z,33.22
2023-03-04T14:39:30.135Z,33.38
2023-03-04T14:42:03.287Z,33.25
2023-03-04T14:44:38.047Z,33.28
2023-03-04T14:47:17.362Z,33.16
2023-03-04T14:49:47.451Z,33.18
2023-03-04T14:52:35.897Z,32.67
2023-03-04T14:55:22.319Z,32.77
2023-03-04T14:57:58.445Z,33.25
2023-03-04T15:00:30.947Z,33.23
2023-03-04T15:03:01.875Z,33.12
2023-03-04T15:05:33.668Z,33.36
2023-03-04T15:08:03.831Z,33.04
2023-03-04T15:10:34.403Z,33.10
2023-03-04T15:13:04.428Z,33.13
2023-03-04T15:15:39.971Z,33.01
2023-03-04T15:18:30.260Z,32.71
2023-03-04T15:21:01.686Z,33.37
2023-03-04T15:23:32.030Z,33.11
2023-03-04T15:26:02.572Z,33.25
2023-03-04T15:28:35.316Z,33.12
2023-03-04T15:31:03.724Z,33.24
2023-03-04T15:33:32.029Z,33.23
2023-03-04T15:36:04.330Z,33.10
2023-03-04T15:38:32.566Z,33.14
2023-03-04T15:41:00.921Z,33.20
2023-03-04T15:43:29.229Z,33.10
2023-03-04T15:45:57.320Z,33.17
2023-03-04T15:48:25.511Z,33.07
2023-03-04T15:50:58.060Z,33.03
2023-03-04T15:53:33.473Z,33.16
2023-03-04T15:56:02.815Z,33.05
2023-03-04T15:58:34.890Z,33.06
2023-03-04T16:01:03.351Z,33.06
2023-03-04T16:03:31.573Z,32.83
2023-03-04T16:05:59.834Z,33.07
2023-03-04T16:08:29.611Z,33.19
2023-03-04T16:10:57.702Z,33.06
2023-03-04T16:13:25.932Z,33.07
2023-03-04T16:15:54.198Z,33.20
2023-03-04T16:18:23.825Z,32.88
2023-03-04T16:20:52.643Z,33.07
2023-03-04T16:23:23.282Z,33.08
2023-03-04T16:25:55.661Z,33.02
2023-03-04T16:28:24.177Z,32.99
2023-03-04T16:30:52.305Z,32.91
2023-03-04T16:33:20.391Z,33.05
2023-03-04T16:35:48.895Z,32.84
2023-03-04T16:38:26.060Z,32.81
2023-03-04T16:40:56.506Z,33.01
2023-03-04T16:43:25.369Z,32.90
2023-03-04T16:45:53.478Z,32.84
2023-03-04T16:48:21.739Z,32.80
2023-03-04T16:50:49.848Z,32.83
2023-03-04T16:53:26.835Z,32.84
2023-03-04T16:55:56.660Z,32.84
2023-03-04T16:58:24.720Z,33.00
2023-03-04T17:00:52.851Z,32.95
2023-03-04T17:03:21.026Z,32.83
2023-03-04T17:05:49.093Z,32.86
2023-03-04T17:08:17.182Z,32.82
2023-03-04T17:10:45.479Z,33.04
2023-03-04T17:13:15.038Z,32.94
2023-03-04T17:15:45.320Z,32.88
2023-03-04T17:18:13.462Z,32.87
2023-03-04T17:20:42.198Z,32.83
2023-03-04T17:23:10.314Z,32.93
2023-03-04T17:25:38.440Z,32.96
2023-03-04T17:28:06.677Z,32.92
2023-03-04T17:30:36.194Z,32.93
2023-03-04T17:33:04.318Z,32.90
2023-03-04T17:35:32.446Z,32.98
2023-03-04T17:38:00.578Z,32.87
2023-03-04T17:40:28.707Z,32.72
2023-03-04T17:42:56.799Z,32.89
2023-03-04T17:45:24.908Z,32.91
2023-03-04T17:47:54.474Z,32.87
2023-03-04T17:50:22.772Z,32.89
2023-03-04T17:52:50.886Z,32.94
2023-03-04T17:55:19.185Z,33.08
2023-03-04T17:57:47.324Z,33.03
2023-03-04T18:00:16.551Z,32.99
2023-03-04T18:02:44.637Z,33.04
2023-03-04T18:05:14.125Z,32.89
2023-03-04T18:07:42.201Z,32.95
2023-03-04T18:10:11.392Z,32.94
2023-03-04T18:12:39.608Z,32.85
2023-03-04T18:15:08.450Z,32.80
2023-03-04T18:17:36.540Z,32.91
2023-03-04T18:20:05.094Z,33.07
2023-03-04T18:22:34.647Z,32.96
2023-03-04T18:25:02.734Z,32.98
2023-03-04T18:27:30.914Z,33.02
2023-03-04T18:29:59.350Z,33.17
2023-03-04T18:32:28.379Z,33.08
2023-03-04T18:34:56.578Z,33.35
2023-03-04T18:37:24.680Z,33.09
2023-03-04T18:39:54.181Z,33.06
2023-03-04T18:42:22.329Z,33.09
2023-03-04T18:44:50.442Z,33.18
2023-03-04T18:47:19.132Z,33.07
2023-03-04T18:49:48.581Z,33.10
2023-03-04T18:52:16.651Z,33.23
2023-03-04T18:54:44.798Z,33.13
2023-03-04T18:57:16.700Z,33.01
2023-03-04T18:59:48.915Z,32.93
2023-03-04T19:02:22.413Z,33.01
2023-03-04T19:04:52.212Z,33.05
2023-03-04T19:07:20.280Z,33.04
2023-03-04T19:09:48.316Z,33.03
2023-03-04T19:12:17.747Z,33.13
2023-03-04T19:14:45.859Z,33.05
2023-03-04T19:17:14.303Z,33.06
2023-03-04T19:19:42.671Z,33.08
2023-03-04T19:22:10.776Z,33.12
2023-03-04T19:24:39.057Z,33.08
2023-03-04T19:27:07.147Z,32.93
2023-03-04T19:29:36.719Z,33.11
2023-03-04T19:32:04.981Z,33.10
2023-03-04T19:34:33.031Z,33.04
2023-03-04T19:37:01.130Z,33.03
2023-03-04T19:39:29.180Z,33.02
2023-03-04T19:41:57.254Z,33.06
2023-03-04T19:44:25.401Z,33.01
2023-03-04T19:46:54.924Z,32.89
2023-03-04T19:49:22.980Z,33.04
2023-03-04T19:51:51.230Z,33.11
2023-03-04T19:54:19.311Z,32.94
2023-03-04T19:56:47.374Z,32.91
2023-03-04T19:59:15.500Z,32.92
2023-03-04T20:01:45.640Z,33.07
2023-03-04T20:04:17.547Z,33.01
2023-03-04T20:06:46.921Z,32.99
2023-03-04T20:09:17.361Z,32.89
2023-03-04T20:11:57.056Z,32.82
2023-03-04T20:14:27.087Z,33.03
2023-03-04T20:16:55.315Z,32.93
2023-03-04T20:19:24.817Z,32.94
2023-03-04T20:21:52.969Z,32.84
2023-03-04T20:24:23.343Z,32.91
2023-03-04T20:26:52.079Z,32.79
2023-03-04T20:29:20.289Z,32.99
2023-03-04T20:31:49.249Z,33.03
2023-03-04T20:34:17.315Z,32.76
2023-03-04T20:36:46.842Z,32.96
2023-03-04T20:39:28.193Z,32.80
2023-03-04T20:41:57.736Z,32.90
2023-03-04T20:44:25.826Z,32.87
2023-03-04T20:46:54.146Z,32.93
2023-03-04T20:49:24.789Z,32.78
2023-03-04T20:51:56.203Z,32.87
2023-03-04T20:54:24.480Z,32.71
2023-03-04T20:56:52.744Z,32.74
2023-03-04T20:59:21.265Z,32.71
2023-03-04T21:01:49.854Z,32.86
2023-03-04T21:04:18.747Z,32.78
2023-03-04T21:06:48.424Z,32.96
2023-03-04T21:09:20.308Z,32.86
2023-03-04T21:11:49.483Z,32.96
2023-03-04T21:14:20.318Z,32.99
2023-03-04T21:16:50.047Z,32.82
2023-03-04T21:19:20.172Z,32.88
2023-03-04T21:21:50.320Z,32.81
2023-03-04T21:24:22.203Z,32.90
2023-03-04T21:26:50.798Z,32.81
2023-03-04T21:29:21.061Z,32.83
2023-03-04T21:31:51.923Z,32.90
2023-03-04T21:34:22.842Z,32.81
2023-03-04T21:36:51.482Z,32.86
2023-03-04T21:39:23.083Z,33.02
2023-03-04T21:41:51.896Z,32.91
2023-03-04T21:44:28.525Z,32.84
2023-03-04T21:47:02.834Z,32.86
2023-03-04T21:49:31.054Z,32.90
2023-03-04T21:51:59.252Z,33.01
2023-03-04T21:54:28.972Z,32.78
2023-03-04T21:56:57.248Z,32.88
2023-03-04T21:59:25.570Z,32.80
2023-03-04T22:01:55.229Z,32.79
2023-03-04T22:04:23.531Z,32.91
2023-03-04T22:06:51.813Z,32.99
2023-03-04T22:09:20.101Z,32.87
2023-03-04T22:11:49.703Z,32.82
2023-03-04T22:14:17.978Z,32.86
2023-03-04T22:16:55.212Z,32.92
2023-03-04T22:19:24.702Z,32.88
2023-03-04T22:21:53.512Z,32.86
2023-03-04T22:24:22.316Z,32.95
2023-03-04T22:26:51.881Z,32.98
2023-03-04T22:29:20.206Z,32.87
2023-03-04T22:31:48.488Z,32.78
2023-03-04T22:34:17.206Z,32.92
2023-03-04T22:36:47.266Z,32.85
2023-03-04T22:39:19.369Z,32.93
2023-03-04T22:41:48.684Z,32.88
2023-03-04T22:44:18.235Z,32.92
2023-03-04T22:46:46.468Z,32.72
2023-03-04T22:49:15.366Z,32.87
2023-03-04T22:51:45.260Z,32.90
2023-03-04T22:54:14.572Z,32.92
2023-03-04T22:56:42.777Z,32.94
2023-03-04T22:59:11.351Z,32.94
2023-03-04T23:01:41.024Z,32.92
2023-03-04T23:04:09.196Z,32.80
2023-03-04T23:06:37.873Z,32.81
2023-03-04T23:09:06.922Z,32.76
2023-03-04T23:11:37.019Z,32.84
2023-03-04T23:14:07.370Z,32.94
2023-03-04T23:16:37.484Z,32.93
2023-03-04T23:19:08.416Z,32.72
2023-03-04T23:21:38.157Z,32.92
2023-03-04T23:24:08.844Z,32.86
2023-03-04T23:26:39.856Z,32.78
2023-03-04T23:29:10.096Z,32.70
2023-03-04T23:31:38.379Z,32.89
2023-03-04T23:34:07.972Z,32.95
2023-03-04T23:36:37.818Z,32.96
2023-03-04T23:39:07.570Z,32.94
2023-03-04T23:41:36.849Z,32.89
2023-03-04T23:44:05.692Z,32.93
2023-03-04T23:46:34.490Z,33.13
2023-03-04T23:49:02.623Z,32.81
2023-03-04T23:51:32.303Z,32.87
2023-03-04T23:54:00.701Z,32.94
2023-03-04T23:56:30.728Z,32.98
2023-03-04T23:58:59.755Z,32.76
